sensor_id;sensor_type;location;lat;lon;timestamp;P1;durP1;ratioP1;P2;durP2;ratioP2
58083;SDS011;43882;51.550;11.858;2023-06-14T00:03:21;13.25;;;3.83;;
58083;SDS011;43882;51.550;11.858;2023-06-14T00:06:46;11.13;;;3.40;;
58083;SDS011;43882;51.550;11.858;2023-06-14T00:10:13;11.70;;;3.75;;
58083;SDS011;43882;51.550;11.858;2023-06-14T00:13:38;12.27;;;3.70;;
58083;SDS011;43882;51.550;11.858;2023-06-14T00:17:03;14.30;;;3.70;;
58083;SDS011;43882;51.550;11.858;2023-06-14T00:20:28;11.77;;;3.50;;
58083;SDS011;43882;51.550;11.858;2023-06-14T00:23:54;13.20;;;4.20;;
58083;SDS011;43882;51.550;11.858;2023-06-14T00:27:19;12.90;;;3.60;;
58083;SDS011;43882;51.550;11.858;2023-06-14T00:30:44;11.88;;;3.50;;
58083;SDS011;43882;51.550;11.858;2023-06-14T00:34:06;11.23;;;3.40;;
58083;SDS011;43882;51.550;11.858;2023-06-14T00:37:32;13.00;;;3.75;;
58083;SDS011;43882;51.550;11.858;2023-06-14T00:40:56;13.60;;;4.28;;
58083;SDS011;43882;51.550;11.858;2023-06-14T00:44:21;13.13;;;4.00;;
58083;SDS011;43882;51.550;11.858;2023-06-14T00:47:45;13.10;;;3.78;;
58083;SDS011;43882;51.550;11.858;2023-06-14T00:51:10;15.73;;;4.18;;
58083;SDS011;43882;51.550;11.858;2023-06-14T00:54:37;13.13;;;3.97;;
58083;SDS011;43882;51.550;11.858;2023-06-14T00:58:02;14.90;;;4.03;;
58083;SDS011;43882;51.550;11.858;2023-06-14T01:01:27;12.27;;;3.67;;
58083;SDS011;43882;51.550;11.858;2023-06-14T01:04:51;13.77;;;3.90;;
58083;SDS011;43882;51.550;11.858;2023-06-14T01:08:27;14.82;;;3.97;;
58083;SDS011;43882;51.550;11.858;2023-06-14T01:12:01;12.93;;;3.90;;
58083;SDS011;43882;51.550;11.858;2023-06-14T01:15:45;12.15;;;3.40;;
58083;SDS011;43882;51.550;11.858;2023-06-14T01:19:10;13.32;;;3.90;;
58083;SDS011;43882;51.550;11.858;2023-06-14T01:22:44;13.18;;;3.80;;
58083;SDS011;43882;51.550;11.858;2023-06-14T01:26:09;13.18;;;3.67;;
58083;SDS011;43882;51.550;11.858;2023-06-14T01:29:30;14.77;;;3.92;;
58083;SDS011;43882;51.550;11.858;2023-06-14T01:32:54;13.30;;;3.97;;
58083;SDS011;43882;51.550;11.858;2023-06-14T01:36:00;13.27;;;3.97;;
58083;SDS011;43882;51.550;11.858;2023-06-14T01:38:46;11.93;;;3.85;;
58083;SDS011;43882;51.550;11.858;2023-06-14T01:42:08;12.50;;;3.80;;
58083;SDS011;43882;51.550;11.858;2023-06-14T01:45:33;13.00;;;3.92;;
58083;SDS011;43882;51.550;11.858;2023-06-14T01:48:51;13.00;;;4.03;;
58083;SDS011;43882;51.550;11.858;2023-06-14T01:52:16;12.50;;;4.28;;
58083;SDS011;43882;51.550;11.858;2023-06-14T01:55:41;13.80;;;4.28;;
58083;SDS011;43882;51.550;11.858;2023-06-14T01:59:05;13.32;;;4.38;;
58083;SDS011;43882;51.550;11.858;2023-06-14T02:02:37;13.07;;;4.35;;
58083;SDS011;43882;51.550;11.858;2023-06-14T02:05:44;13.43;;;4.30;;
58083;SDS011;43882;51.550;11.858;2023-06-14T02:08:42;15.13;;;4.00;;
58083;SDS011;43882;51.550;11.858;2023-06-14T02:11:18;13.32;;;4.40;;
58083;SDS011;43882;51.550;11.858;2023-06-14T02:13:52;12.82;;;4.13;;
58083;SDS011;43882;51.550;11.858;2023-06-14T02:16:18;13.82;;;4.18;;
58083;SDS011;43882;51.550;11.858;2023-06-14T02:18:44;14.07;;;4.38;;
58083;SDS011;43882;51.550;11.858;2023-06-14T02:21:10;13.95;;;4.00;;
58083;SDS011;43882;51.550;11.858;2023-06-14T02:23:36;13.77;;;4.20;;
58083;SDS011;43882;51.550;11.858;2023-06-14T02:26:02;14.55;;;4.45;;
58083;SDS011;43882;51.550;11.858;2023-06-14T02:28:28;14.10;;;4.45;;
58083;SDS011;43882;51.550;11.858;2023-06-14T02:30:54;14.50;;;4.95;;
58083;SDS011;43882;51.550;11.858;2023-06-14T02:33:20;14.02;;;4.47;;
58083;SDS011;43882;51.550;11.858;2023-06-14T02:35:46;13.25;;;4.15;;
58083;SDS011;43882;51.550;11.858;2023-06-14T02:38:13;13.45;;;4.05;;
58083;SDS011;43882;51.550;11.858;2023-06-14T02:40:39;14.05;;;4.18;;
58083;SDS011;43882;51.550;11.858;2023-06-14T02:43:07;13.45;;;4.40;;
58083;SDS011;43882;51.550;11.858;2023-06-14T02:45:33;14.43;;;3.97;;
58083;SDS011;43882;51.550;11.858;2023-06-14T02:47:59;12.30;;;3.78;;
58083;SDS011;43882;51.550;11.858;2023-06-14T02:50:25;13.63;;;4.22;;
58083;SDS011;43882;51.550;11.858;2023-06-14T02:52:53;15.30;;;4.55;;
58083;SDS011;43882;51.550;11.858;2023-06-14T02:55:21;15.25;;;4.28;;
58083;SDS011;43882;51.550;11.858;2023-06-14T02:57:48;14.50;;;3.88;;
58083;SDS011;43882;51.550;11.858;2023-06-14T03:00:14;14.25;;;4.70;;
58083;SDS011;43882;51.550;11.858;2023-06-14T03:02:41;15.27;;;4.25;;
58083;SDS011;43882;51.550;11.858;2023-06-14T03:05:08;12.55;;;4.20;;
58083;SDS011;43882;51.550;11.858;2023-06-14T03:07:34;14.15;;;4.25;;
58083;SDS011;43882;51.550;11.858;2023-06-14T03:10:06;12.57;;;3.85;;
58083;SDS011;43882;51.550;11.858;2023-06-14T03:12:35;12.82;;;4.20;;
58083;SDS011;43882;51.550;11.858;2023-06-14T03:15:01;14.68;;;4.47;;
58083;SDS011;43882;51.550;11.858;2023-06-14T03:17:28;13.60;;;4.30;;
58083;SDS011;43882;51.550;11.858;2023-06-14T03:19:58;14.02;;;4.65;;
58083;SDS011;43882;51.550;11.858;2023-06-14T03:22:25;13.57;;;4.32;;
58083;SDS011;43882;51.550;11.858;2023-06-14T03:24:51;14.05;;;4.50;;
58083;SDS011;43882;51.550;11.858;2023-06-14T03:27:19;13.32;;;4.38;;
58083;SDS011;43882;51.550;11.858;2023-06-14T03:29:45;13.70;;;4.50;;
58083;SDS011;43882;51.550;11.858;2023-06-14T03:32:11;13.45;;;4.45;;
58083;SDS011;43882;51.550;11.858;2023-06-14T03:34:37;13.68;;;4.47;;
58083;SDS011;43882;51.550;11.858;2023-06-14T03:37:04;14.13;;;4.68;;
58083;SDS011;43882;51.550;11.858;2023-06-14T03:39:30;13.25;;;4.38;;
58083;SDS011;43882;51.550;11.858;2023-06-14T03:41:56;13.90;;;4.38;;
58083;SDS011;43882;51.550;11.858;2023-06-14T03:44:22;15.13;;;5.10;;
58083;SDS011;43882;51.550;11.858;2023-06-14T03:46:48;14.18;;;4.75;;
58083;SDS011;43882;51.550;11.858;2023-06-14T03:49:14;15.38;;;4.80;;
58083;SDS011;43882;51.550;11.858;2023-06-14T03:51:42;14.35;;;4.60;;
58083;SDS011;43882;51.550;11.858;2023-06-14T03:54:08;15.10;;;4.78;;
58083;SDS011;43882;51.550;11.858;2023-06-14T03:56:34;15.30;;;5.50;;
58083;SDS011;43882;51.550;11.858;2023-06-14T03:59:01;14.57;;;4.90;;
58083;SDS011;43882;51.550;11.858;2023-06-14T04:01:28;15.65;;;5.32;;
58083;SDS011;43882;51.550;11.858;2023-06-14T04:03:57;14.45;;;4.90;;
58083;SDS011;43882;51.550;11.858;2023-06-14T04:06:23;15.13;;;5.35;;
58083;SDS011;43882;51.550;11.858;2023-06-14T04:08:56;14.43;;;4.90;;
58083;SDS011;43882;51.550;11.858;2023-06-14T04:11:26;16.05;;;5.57;;
58083;SDS011;43882;51.550;11.858;2023-06-14T04:13:52;14.68;;;5.10;;
58083;SDS011;43882;51.550;11.858;2023-06-14T04:16:18;15.50;;;5.40;;
58083;SDS011;43882;51.550;11.858;2023-06-14T04:18:45;16.52;;;5.93;;
58083;SDS011;43882;51.550;11.858;2023-06-14T04:21:13;15.40;;;5.57;;
58083;SDS011;43882;51.550;11.858;2023-06-14T04:23:39;15.10;;;5.70;;
58083;SDS011;43882;51.550;11.858;2023-06-14T04:26:08;15.65;;;5.85;;
58083;SDS011;43882;51.550;11.858;2023-06-14T04:28:35;16.80;;;6.00;;
58083;SDS011;43882;51.550;11.858;2023-06-14T04:31:05;16.40;;;6.20;;
58083;SDS011;43882;51.550;11.858;2023-06-14T04:33:33;15.80;;;6.05;;
58083;SDS011;43882;51.550;11.858;2023-06-14T04:36:09;16.05;;;6.53;;
58083;SDS011;43882;51.550;11.858;2023-06-14T04:38:37;16.98;;;6.68;;
58083;SDS011;43882;51.550;11.858;2023-06-14T04:41:03;16.70;;;6.78;;
58083;SDS011;43882;51.550;11.858;2023-06-14T04:43:29;16.95;;;6.70;;
58083;SDS011;43882;51.550;11.858;2023-06-14T04:45:56;16.85;;;6.80;;
58083;SDS011;43882;51.550;11.858;2023-06-14T04:48:23;18.33;;;6.70;;
58083;SDS011;43882;51.550;11.858;2023-06-14T04:50:49;16.25;;;6.43;;
58083;SDS011;43882;51.550;11.858;2023-06-14T04:53:19;16.30;;;6.15;;
58083;SDS011;43882;51.550;11.858;2023-06-14T04:55:47;16.95;;;6.40;;
58083;SDS011;43882;51.550;11.858;2023-06-14T04:58:20;17.45;;;6.38;;
58083;SDS011;43882;51.550;11.858;2023-06-14T05:00:47;16.33;;;6.85;;
58083;SDS011;43882;51.550;11.858;2023-06-14T05:03:43;18.80;;;6.75;;
58083;SDS011;43882;51.550;11.858;2023-06-14T05:06:48;16.92;;;5.97;;
58083;SDS011;43882;51.550;11.858;2023-06-14T05:13:02;16.75;;;6.53;;
58083;SDS011;43882;51.550;11.858;2023-06-14T05:15:43;16.55;;;6.78;;
58083;SDS011;43882;51.550;11.858;2023-06-14T05:18:10;17.23;;;6.55;;
58083;SDS011;43882;51.550;11.858;2023-06-14T05:20:36;16.27;;;6.75;;
58083;SDS011;43882;51.550;11.858;2023-06-14T05:23:02;16.85;;;6.97;;
58083;SDS011;43882;51.550;11.858;2023-06-14T05:25:28;16.73;;;6.65;;
58083;SDS011;43882;51.550;11.858;2023-06-14T05:27:54;17.13;;;6.90;;
58083;SDS011;43882;51.550;11.858;2023-06-14T05:30:20;19.40;;;6.82;;
58083;SDS011;43882;51.550;11.858;2023-06-14T05:32:47;17.55;;;7.05;;
58083;SDS011;43882;51.550;11.858;2023-06-14T05:35:13;16.25;;;6.53;;
58083;SDS011;43882;51.550;11.858;2023-06-14T05:37:39;16.52;;;6.32;;
58083;SDS011;43882;51.550;11.858;2023-06-14T05:40:05;17.08;;;6.45;;
58083;SDS011;43882;51.550;11.858;2023-06-14T05:42:32;16.27;;;6.45;;
58083;SDS011;43882;51.550;11.858;2023-06-14T05:44:58;16.80;;;6.38;;
58083;SDS011;43882;51.550;11.858;2023-06-14T05:47:25;16.60;;;6.88;;
58083;SDS011;43882;51.550;11.858;2023-06-14T05:49:52;17.13;;;6.93;;
58083;SDS011;43882;51.550;11.858;2023-06-14T05:52:19;16.67;;;7.22;;
58083;SDS011;43882;51.550;11.858;2023-06-14T05:54:46;16.75;;;6.32;;
58083;SDS011;43882;51.550;11.858;2023-06-14T05:57:12;16.60;;;6.25;;
58083;SDS011;43882;51.550;11.858;2023-06-14T05:59:38;17.50;;;7.20;;
58083;SDS011;43882;51.550;11.858;2023-06-14T06:02:05;18.40;;;6.78;;
58083;SDS011;43882;51.550;11.858;2023-06-14T06:04:31;16.95;;;6.85;;
58083;SDS011;43882;51.550;11.858;2023-06-14T06:06:57;18.17;;;6.85;;
58083;SDS011;43882;51.550;11.858;2023-06-14T06:09:23;16.13;;;6.78;;
58083;SDS011;43882;51.550;11.858;2023-06-14T06:11:49;17.88;;;6.55;;
58083;SDS011;43882;51.550;11.858;2023-06-14T06:14:15;17.85;;;6.93;;
58083;SDS011;43882;51.550;11.858;2023-06-14T06:16:42;16.75;;;6.68;;
58083;SDS011;43882;51.550;11.858;2023-06-14T06:19:17;16.17;;;6.30;;
58083;SDS011;43882;51.550;11.858;2023-06-14T06:21:52;16.90;;;7.25;;
58083;SDS011;43882;51.550;11.858;2023-06-14T06:25:14;16.75;;;6.97;;
58083;SDS011;43882;51.550;11.858;2023-06-14T06:28:10;16.52;;;6.40;;
58083;SDS011;43882;51.550;11.858;2023-06-14T06:31:06;17.48;;;6.95;;
58083;SDS011;43882;51.550;11.858;2023-06-14T06:33:45;18.10;;;7.43;;
58083;SDS011;43882;51.550;11.858;2023-06-14T06:36:11;17.48;;;8.02;;
58083;SDS011;43882;51.550;11.858;2023-06-14T06:38:37;16.40;;;6.75;;
58083;SDS011;43882;51.550;11.858;2023-06-14T06:41:03;16.33;;;6.40;;
58083;SDS011;43882;51.550;11.858;2023-06-14T06:43:29;19.02;;;6.70;;
58083;SDS011;43882;51.550;11.858;2023-06-14T06:45:55;17.27;;;6.35;;
58083;SDS011;43882;51.550;11.858;2023-06-14T06:48:21;16.55;;;6.70;;
58083;SDS011;43882;51.550;11.858;2023-06-14T06:50:47;16.75;;;6.97;;
58083;SDS011;43882;51.550;11.858;2023-06-14T06:53:13;16.67;;;6.57;;
58083;SDS011;43882;51.550;11.858;2023-06-14T06:55:40;17.95;;;6.72;;
58083;SDS011;43882;51.550;11.858;2023-06-14T06:58:06;16.67;;;6.70;;
58083;SDS011;43882;51.550;11.858;2023-06-14T07:00:32;15.40;;;6.25;;
58083;SDS011;43882;51.550;11.858;2023-06-14T07:02:59;15.68;;;6.53;;
58083;SDS011;43882;51.550;11.858;2023-06-14T07:05:26;16.52;;;6.25;;
58083;SDS011;43882;51.550;11.858;2023-06-14T07:07:53;16.33;;;6.50;;
58083;SDS011;43882;51.550;11.858;2023-06-14T07:10:24;16.05;;;6.32;;
58083;SDS011;43882;51.550;11.858;2023-06-14T07:12:53;15.50;;;6.10;;
58083;SDS011;43882;51.550;11.858;2023-06-14T07:15:33;16.95;;;6.07;;
58083;SDS011;43882;51.550;11.858;2023-06-14T07:18:09;14.98;;;5.97;;
58083;SDS011;43882;51.550;11.858;2023-06-14T07:21:22;16.33;;;6.10;;
58083;SDS011;43882;51.550;11.858;2023-06-14T07:23:50;16.63;;;6.55;;
58083;SDS011;43882;51.550;11.858;2023-06-14T07:26:24;16.83;;;6.05;;
58083;SDS011;43882;51.550;11.858;2023-06-14T07:28:52;16.35;;;5.90;;
58083;SDS011;43882;51.550;11.858;2023-06-14T07:31:21;17.35;;;5.70;;
58083;SDS011;43882;51.550;11.858;2023-06-14T07:34:23;15.40;;;5.50;;
58083;SDS011;43882;51.550;11.858;2023-06-14T07:36:54;14.80;;;5.60;;
58083;SDS011;43882;51.550;11.858;2023-06-14T07:39:32;15.80;;;5.47;;
58083;SDS011;43882;51.550;11.858;2023-06-14T07:42:23;15.25;;;5.55;;
58083;SDS011;43882;51.550;11.858;2023-06-14T07:44:54;16.75;;;6.10;;
58083;SDS011;43882;51.550;11.858;2023-06-14T07:48:19;15.25;;;5.82;;
58083;SDS011;43882;51.550;11.858;2023-06-14T07:51:38;14.43;;;5.10;;
58083;SDS011;43882;51.550;11.858;2023-06-14T07:54:58;15.10;;;5.57;;
58083;SDS011;43882;51.550;11.858;2023-06-14T07:58:12;14.80;;;4.80;;
58083;SDS011;43882;51.550;11.858;2023-06-14T08:00:42;14.35;;;4.90;;
58083;SDS011;43882;51.550;11.858;2023-06-14T08:04:04;14.85;;;5.38;;
58083;SDS011;43882;51.550;11.858;2023-06-14T08:07:29;16.05;;;5.20;;
58083;SDS011;43882;51.550;11.858;2023-06-14T08:17:19;17.20;;;5.60;;
58083;SDS011;43882;51.550;11.858;2023-06-14T08:20:24;15.23;;;5.60;;
58083;SDS011;43882;51.550;11.858;2023-06-14T08:23:33;15.27;;;5.72;;
58083;SDS011;43882;51.550;11.858;2023-06-14T08:26:52;14.63;;;5.40;;
58083;SDS011;43882;51.550;11.858;2023-06-14T08:30:17;14.90;;;5.38;;
58083;SDS011;43882;51.550;11.858;2023-06-14T08:33:42;15.23;;;4.90;;
58083;SDS011;43882;51.550;11.858;2023-06-14T08:37:06;14.40;;;5.28;;
58083;SDS011;43882;51.550;11.858;2023-06-14T08:40:31;14.98;;;5.22;;
58083;SDS011;43882;51.550;11.858;2023-06-14T08:43:58;15.18;;;5.20;;
58083;SDS011;43882;51.550;11.858;2023-06-14T08:47:23;16.42;;;5.00;;
58083;SDS011;43882;51.550;11.858;2023-06-14T08:50:48;15.80;;;5.47;;
58083;SDS011;43882;51.550;11.858;2023-06-14T08:54:17;15.68;;;5.55;;
58083;SDS011;43882;51.550;11.858;2023-06-14T08:57:42;12.93;;;4.00;;
58083;SDS011;43882;51.550;11.858;2023-06-14T09:01:09;14.45;;;5.05;;
58083;SDS011;43882;51.550;11.858;2023-06-14T09:04:39;13.95;;;4.78;;
58083;SDS011;43882;51.550;11.858;2023-06-14T09:08:04;14.63;;;4.82;;
58083;SDS011;43882;51.550;11.858;2023-06-14T09:11:29;14.55;;;4.93;;
58083;SDS011;43882;51.550;11.858;2023-06-14T09:14:12;15.20;;;5.07;;
58083;SDS011;43882;51.550;11.858;2023-06-14T09:17:07;14.52;;;4.90;;
58083;SDS011;43882;51.550;11.858;2023-06-14T09:20:20;15.30;;;5.10;;
58083;SDS011;43882;51.550;11.858;2023-06-14T09:23:45;14.52;;;4.43;;
58083;SDS011;43882;51.550;11.858;2023-06-14T09:27:04;13.75;;;4.70;;
58083;SDS011;43882;51.550;11.858;2023-06-14T09:30:28;14.90;;;4.50;;
58083;SDS011;43882;51.550;11.858;2023-06-14T09:33:50;13.93;;;4.57;;
58083;SDS011;43882;51.550;11.858;2023-06-14T09:37:27;14.65;;;4.32;;
58083;SDS011;43882;51.550;11.858;2023-06-14T09:40:41;13.63;;;4.40;;
58083;SDS011;43882;51.550;11.858;2023-06-14T09:44:06;12.98;;;4.38;;
58083;SDS011;43882;51.550;11.858;2023-06-14T09:47:31;13.73;;;4.45;;
58083;SDS011;43882;51.550;11.858;2023-06-14T09:50:56;13.73;;;4.50;;
58083;SDS011;43882;51.550;11.858;2023-06-14T09:54:22;12.60;;;3.90;;
58083;SDS011;43882;51.550;11.858;2023-06-14T09:57:47;13.85;;;3.95;;
58083;SDS011;43882;51.550;11.858;2023-06-14T10:01:12;12.60;;;3.97;;
58083;SDS011;43882;51.550;11.858;2023-06-14T10:04:44;11.93;;;3.65;;
58083;SDS011;43882;51.550;11.858;2023-06-14T10:08:15;14.05;;;4.28;;
58083;SDS011;43882;51.550;11.858;2023-06-14T10:11:40;14.40;;;4.10;;
58083;SDS011;43882;51.550;11.858;2023-06-14T10:15:05;13.02;;;3.83;;
58083;SDS011;43882;51.550;11.858;2023-06-14T10:18:41;13.15;;;3.80;;
58083;SDS011;43882;51.550;11.858;2023-06-14T10:22:09;14.18;;;4.20;;
58083;SDS011;43882;51.550;11.858;2023-06-14T10:25:37;14.25;;;4.03;;
58083;SDS011;43882;51.550;11.858;2023-06-14T10:29:07;12.70;;;4.10;;
58083;SDS011;43882;51.550;11.858;2023-06-14T10:32:32;14.10;;;4.22;;
58083;SDS011;43882;51.550;11.858;2023-06-14T10:36:24;13.95;;;4.00;;
58083;SDS011;43882;51.550;11.858;2023-06-14T10:39:49;14.63;;;4.10;;
58083;SDS011;43882;51.550;11.858;2023-06-14T10:43:21;10.88;;;3.58;;
58083;SDS011;43882;51.550;11.858;2023-06-14T10:46:48;13.57;;;4.00;;
58083;SDS011;43882;51.550;11.858;2023-06-14T10:50:13;12.30;;;3.60;;
58083;SDS011;43882;51.550;11.858;2023-06-14T10:53:41;13.55;;;3.88;;
58083;SDS011;43882;51.550;11.858;2023-06-14T10:57:20;11.05;;;3.60;;
58083;SDS011;43882;51.550;11.858;2023-06-14T11:00:44;14.88;;;4.22;;
58083;SDS011;43882;51.550;11.858;2023-06-14T11:08:17;11.95;;;3.80;;
58083;SDS011;43882;51.550;11.858;2023-06-14T11:11:57;12.88;;;3.90;;
58083;SDS011;43882;51.550;11.858;2023-06-14T11:15:29;12.70;;;4.00;;
58083;SDS011;43882;51.550;11.858;2023-06-14T11:18:53;13.32;;;4.25;;
58083;SDS011;43882;51.550;11.858;2023-06-14T11:22:44;14.10;;;4.30;;
58083;SDS011;43882;51.550;11.858;2023-06-14T11:26:13;13.20;;;3.93;;
58083;SDS011;43882;51.550;11.858;2023-06-14T11:29:39;13.30;;;4.00;;
58083;SDS011;43882;51.550;11.858;2023-06-14T11:33:16;12.07;;;3.93;;
58083;SDS011;43882;51.550;11.858;2023-06-14T11:36:41;13.63;;;4.28;;
58083;SDS011;43882;51.550;11.858;2023-06-14T11:40:07;13.50;;;4.50;;
58083;SDS011;43882;51.550;11.858;2023-06-14T11:43:31;14.40;;;4.53;;
58083;SDS011;43882;51.550;11.858;2023-06-14T11:46:56;13.95;;;4.60;;
58083;SDS011;43882;51.550;11.858;2023-06-14T11:50:24;15.00;;;4.90;;
58083;SDS011;43882;51.550;11.858;2023-06-14T11:53:49;14.23;;;4.75;;
58083;SDS011;43882;51.550;11.858;2023-06-14T11:57:14;13.98;;;4.50;;
58083;SDS011;43882;51.550;11.858;2023-06-14T12:00:39;14.32;;;4.90;;
58083;SDS011;43882;51.550;11.858;2023-06-14T12:04:04;15.00;;;5.03;;
58083;SDS011;43882;51.550;11.858;2023-06-14T12:07:36;13.57;;;4.75;;
58083;SDS011;43882;51.550;11.858;2023-06-14T12:11:05;13.13;;;4.55;;
58083;SDS011;43882;51.550;11.858;2023-06-14T12:14:30;14.23;;;4.65;;
58083;SDS011;43882;51.550;11.858;2023-06-14T12:17:54;13.68;;;4.60;;
58083;SDS011;43882;51.550;11.858;2023-06-14T12:21:22;15.10;;;4.97;;
58083;SDS011;43882;51.550;11.858;2023-06-14T12:24:48;16.15;;;5.05;;
58083;SDS011;43882;51.550;11.858;2023-06-14T12:28:11;14.75;;;5.10;;
58083;SDS011;43882;51.550;11.858;2023-06-14T12:31:37;13.95;;;4.72;;
58083;SDS011;43882;51.550;11.858;2023-06-14T12:35:02;14.93;;;4.75;;
58083;SDS011;43882;51.550;11.858;2023-06-14T12:38:28;14.23;;;4.60;;
58083;SDS011;43882;51.550;11.858;2023-06-14T12:41:52;15.18;;;5.20;;
58083;SDS011;43882;51.550;11.858;2023-06-14T12:45:17;14.15;;;4.85;;
58083;SDS011;43882;51.550;11.858;2023-06-14T12:48:42;14.05;;;4.95;;
58083;SDS011;43882;51.550;11.858;2023-06-14T12:52:06;13.73;;;4.75;;
58083;SDS011;43882;51.550;11.858;2023-06-14T12:55:32;13.60;;;4.40;;
58083;SDS011;43882;51.550;11.858;2023-06-14T12:58:58;15.77;;;4.82;;
58083;SDS011;43882;51.550;11.858;2023-06-14T13:02:24;13.80;;;4.47;;
58083;SDS011;43882;51.550;11.858;2023-06-14T13:05:47;15.00;;;5.10;;
58083;SDS011;43882;51.550;11.858;2023-06-14T13:09:12;13.68;;;4.55;;
58083;SDS011;43882;51.550;11.858;2023-06-14T13:12:37;15.82;;;5.15;;
58083;SDS011;43882;51.550;11.858;2023-06-14T13:16:01;16.33;;;4.93;;
58083;SDS011;43882;51.550;11.858;2023-06-14T13:19:26;13.90;;;4.25;;
58083;SDS011;43882;51.550;11.858;2023-06-14T13:22:50;13.55;;;3.85;;
58083;SDS011;43882;51.550;11.858;2023-06-14T13:26:15;14.02;;;4.28;;
58083;SDS011;43882;51.550;11.858;2023-06-14T13:29:40;14.10;;;4.20;;
58083;SDS011;43882;51.550;11.858;2023-06-14T13:33:04;13.40;;;4.65;;
58083;SDS011;43882;51.550;11.858;2023-06-14T13:36:30;14.35;;;4.55;;
58083;SDS011;43882;51.550;11.858;2023-06-14T13:39:55;15.38;;;4.93;;
58083;SDS011;43882;51.550;11.858;2023-06-14T13:43:20;15.18;;;4.80;;
58083;SDS011;43882;51.550;11.858;2023-06-14T13:46:46;14.77;;;4.95;;
58083;SDS011;43882;51.550;11.858;2023-06-14T13:50:13;15.68;;;4.88;;
58083;SDS011;43882;51.550;11.858;2023-06-14T13:53:38;14.50;;;4.93;;
58083;SDS011;43882;51.550;11.858;2023-06-14T13:57:02;15.52;;;5.15;;
58083;SDS011;43882;51.550;11.858;2023-06-14T14:00:26;14.70;;;4.82;;
58083;SDS011;43882;51.550;11.858;2023-06-14T14:03:53;15.63;;;4.32;;
58083;SDS011;43882;51.550;11.858;2023-06-14T14:07:18;13.70;;;4.88;;
58083;SDS011;43882;51.550;11.858;2023-06-14T14:10:43;15.02;;;4.60;;
58083;SDS011;43882;51.550;11.858;2023-06-14T14:14:08;14.52;;;4.72;;
58083;SDS011;43882;51.550;11.858;2023-06-14T14:17:37;15.48;;;4.78;;
58083;SDS011;43882;51.550;11.858;2023-06-14T14:21:02;13.60;;;4.25;;
58083;SDS011;43882;51.550;11.858;2023-06-14T14:24:27;13.82;;;4.95;;
58083;SDS011;43882;51.550;11.858;2023-06-14T14:27:51;14.82;;;4.88;;
58083;SDS011;43882;51.550;11.858;2023-06-14T14:31:16;14.68;;;4.50;;
58083;SDS011;43882;51.550;11.858;2023-06-14T14:34:41;15.38;;;5.13;;
58083;SDS011;43882;51.550;11.858;2023-06-14T14:38:10;14.23;;;4.63;;
58083;SDS011;43882;51.550;11.858;2023-06-14T14:41:35;14.05;;;4.45;;
58083;SDS011;43882;51.550;11.858;2023-06-14T14:45:00;13.57;;;4.30;;
58083;SDS011;43882;51.550;11.858;2023-06-14T14:48:25;14.30;;;4.50;;
58083;SDS011;43882;51.550;11.858;2023-06-14T14:51:50;14.30;;;4.25;;
58083;SDS011;43882;51.550;11.858;2023-06-14T14:55:14;14.65;;;4.65;;
58083;SDS011;43882;51.550;11.858;2023-06-14T14:58:39;14.57;;;5.03;;
58083;SDS011;43882;51.550;11.858;2023-06-14T15:02:04;15.73;;;4.75;;
58083;SDS011;43882;51.550;11.858;2023-06-14T15:05:29;14.52;;;4.65;;
58083;SDS011;43882;51.550;11.858;2023-06-14T15:08:53;14.27;;;4.50;;
58083;SDS011;43882;51.550;11.858;2023-06-14T15:12:18;14.05;;;4.38;;
58083;SDS011;43882;51.550;11.858;2023-06-14T15:15:43;13.05;;;4.32;;
58083;SDS011;43882;51.550;11.858;2023-06-14T15:19:07;12.90;;;4.20;;
58083;SDS011;43882;51.550;11.858;2023-06-14T15:22:32;13.43;;;4.40;;
58083;SDS011;43882;51.550;11.858;2023-06-14T15:25:57;13.70;;;4.30;;
58083;SDS011;43882;51.550;11.858;2023-06-14T15:29:21;14.15;;;4.63;;
58083;SDS011;43882;51.550;11.858;2023-06-14T15:32:46;13.38;;;4.40;;
58083;SDS011;43882;51.550;11.858;2023-06-14T15:36:11;12.80;;;4.30;;
58083;SDS011;43882;51.550;11.858;2023-06-14T15:39:35;15.68;;;4.72;;
58083;SDS011;43882;51.550;11.858;2023-06-14T15:42:59;14.45;;;4.20;;
58083;SDS011;43882;51.550;11.858;2023-06-14T15:46:24;14.27;;;4.28;;
58083;SDS011;43882;51.550;11.858;2023-06-14T15:49:49;14.65;;;4.47;;
58083;SDS011;43882;51.550;11.858;2023-06-14T15:53:13;13.70;;;4.30;;
58083;SDS011;43882;51.550;11.858;2023-06-14T15:56:38;14.88;;;4.03;;
58083;SDS011;43882;51.550;11.858;2023-06-14T16:00:03;13.55;;;4.40;;
58083;SDS011;43882;51.550;11.858;2023-06-14T16:03:28;14.38;;;4.63;;
58083;SDS011;43882;51.550;11.858;2023-06-14T16:06:53;14.38;;;4.30;;
58083;SDS011;43882;51.550;11.858;2023-06-14T16:10:18;14.30;;;4.47;;
58083;SDS011;43882;51.550;11.858;2023-06-14T16:13:43;12.60;;;4.30;;
58083;SDS011;43882;51.550;11.858;2023-06-14T16:17:07;15.15;;;4.38;;
58083;SDS011;43882;51.550;11.858;2023-06-14T16:20:32;13.18;;;4.22;;
58083;SDS011;43882;51.550;11.858;2023-06-14T16:24:04;13.93;;;4.63;;
58083;SDS011;43882;51.550;11.858;2023-06-14T16:27:31;15.70;;;4.63;;
58083;SDS011;43882;51.550;11.858;2023-06-14T16:30:56;14.98;;;4.72;;
58083;SDS011;43882;51.550;11.858;2023-06-14T16:34:21;14.57;;;4.60;;
58083;SDS011;43882;51.550;11.858;2023-06-14T16:37:46;14.45;;;4.53;;
58083;SDS011;43882;51.550;11.858;2023-06-14T16:41:10;14.52;;;4.68;;
58083;SDS011;43882;51.550;11.858;2023-06-14T16:44:36;13.23;;;4.13;;
58083;SDS011;43882;51.550;11.858;2023-06-14T16:48:00;13.65;;;4.10;;
58083;SDS011;43882;51.550;11.858;2023-06-14T16:51:25;13.65;;;4.40;;
58083;SDS011;43882;51.550;11.858;2023-06-14T16:54:50;13.75;;;4.05;;
58083;SDS011;43882;51.550;11.858;2023-06-14T16:58:15;14.65;;;4.28;;
58083;SDS011;43882;51.550;11.858;2023-06-14T17:01:39;16.40;;;5.43;;
58083;SDS011;43882;51.550;11.858;2023-06-14T17:05:04;14.43;;;4.72;;
58083;SDS011;43882;51.550;11.858;2023-06-14T17:08:31;14.80;;;4.63;;
58083;SDS011;43882;51.550;11.858;2023-06-14T17:11:58;14.38;;;4.28;;
58083;SDS011;43882;51.550;11.858;2023-06-14T17:15:22;14.07;;;4.38;;
58083;SDS011;43882;51.550;11.858;2023-06-14T17:18:47;12.60;;;4.22;;
58083;SDS011;43882;51.550;11.858;2023-06-14T17:22:12;14.35;;;4.57;;
58083;SDS011;43882;51.550;11.858;2023-06-14T17:25:36;13.80;;;4.43;;
58083;SDS011;43882;51.550;11.858;2023-06-14T17:29:01;14.88;;;4.45;;
58083;SDS011;43882;51.550;11.858;2023-06-14T17:32:26;13.23;;;4.18;;
58083;SDS011;43882;51.550;11.858;2023-06-14T17:35:50;13.40;;;3.83;;
58083;SDS011;43882;51.550;11.858;2023-06-14T17:39:16;14.30;;;4.40;;
58083;SDS011;43882;51.550;11.858;2023-06-14T17:42:41;14.30;;;4.15;;
58083;SDS011;43882;51.550;11.858;2023-06-14T17:46:05;14.73;;;4.30;;
58083;SDS011;43882;51.550;11.858;2023-06-14T17:49:30;14.10;;;4.32;;
58083;SDS011;43882;51.550;11.858;2023-06-14T17:52:55;14.40;;;4.30;;
58083;SDS011;43882;51.550;11.858;2023-06-14T17:56:19;13.80;;;4.55;;
58083;SDS011;43882;51.550;11.858;2023-06-14T17:59:44;14.75;;;4.57;;
58083;SDS011;43882;51.550;11.858;2023-06-14T18:03:09;12.77;;;4.03;;
58083;SDS011;43882;51.550;11.858;2023-06-14T18:06:33;14.95;;;4.63;;
58083;SDS011;43882;51.550;11.858;2023-06-14T18:09:58;12.25;;;4.10;;